Time;durP1;ratioP1;P1;durP2;ratioP2;P2;SDS_P1;SDS_P2;PMS_P1;PMS_P2;Temp;Humidity;BMP_temperature;BMP_pressure;BME280_temperature;BME280_humidity;BME280_pressure;Samples;Min_cycle;Max_cycle;Signal;HPM_P1;HPM_P2
2021/04/15 00:01:22;;;;;;;7.07;6.38;;;;;;;9.63;51.43;100990.56;4891170;28;20061;-71
2021/04/15 00:03:50;;;;;;;7.05;6.35;;;;;;;9.58;51.28;100984.66;4906842;28;20044;-71
2021/04/15 00:06:35;;;;;;;6.32;5.72;;;;;;;9.51;52.09;100989.22;4893468;29;20059;-71
2021/04/15 00:09:11;;;;;;;6.90;5.88;;;;;;;9.63;50.73;100985.34;4893187;29;20067;-71
2021/04/15 00:11:39;;;;;;;8.18;5.85;;;;;;;9.62;51.22;100971.50;4891765;28;20057;-71
2021/04/15 00:14:07;;;;;;;7.20;5.68;;;;;;;9.42;51.27;100976.53;4893799;29;20040;-71
2021/04/15 00:16:34;;;;;;;7.90;5.82;;;;;;;9.65;50.50;100975.75;4892851;28;20076;-70
2021/04/15 00:19:04;;;;;;;8.40;6.18;;;;;;;9.79;49.75;100975.25;4893712;29;20048;-71
2021/04/15 00:21:31;;;;;;;6.90;5.80;;;;;;;9.92;49.43;100971.34;4893006;28;20090;-69
2021/04/15 00:23:58;;;;;;;8.70;6.68;;;;;;;9.73;50.51;100973.72;4892764;28;20096;-69
2021/04/15 00:26:27;;;;;;;11.27;6.13;;;;;;;9.91;49.59;100965.28;4893612;29;20111;-70
2021/04/15 00:28:55;;;;;;;10.05;6.68;;;;;;;9.88;49.98;100965.38;4893279;29;20091;-68
2021/04/15 00:31:23;;;;;;;7.40;6.47;;;;;;;9.84;49.86;100955.13;4893596;29;20094;-69
2021/04/15 00:33:51;;;;;;;8.43;6.72;;;;;;;9.41;50.54;100959.22;4893957;29;20069;-67
2021/04/15 00:36:20;;;;;;;7.30;6.47;;;;;;;9.13;51.58;100961.88;4892387;28;20059;-68
2021/04/15 00:38:48;;;;;;;15.23;7.22;;;;;;;9.39;51.85;100963.63;4893414;29;20095;-70
2021/04/15 00:41:16;;;;;;;7.13;6.15;;;;;;;9.23;52.49;100955.47;4892345;29;20049;-70
2021/04/15 00:43:45;;;;;;;9.32;7.60;;;;;;;9.05;53.81;100953.47;4892331;29;20049;-69
2021/04/15 00:46:15;;;;;;;10.65;6.70;;;;;;;9.08;54.37;100956.81;4893782;29;20061;-70
2021/04/15 00:48:43;;;;;;;6.88;6.05;;;;;;;9.28;52.74;100965.75;4892860;28;20132;-72
2021/04/15 00:51:23;;;;;;;7.70;6.22;;;;;;;8.92;53.87;100963.44;4892955;29;20087;-71
2021/04/15 00:53:57;;;;;;;7.88;6.30;;;;;;;9.03;53.20;100960.47;4892027;28;20090;-71
2021/04/15 00:56:24;;;;;;;7.80;7.10;;;;;;;9.05;53.46;100956.91;4893942;29;20078;-72
2021/04/15 00:58:51;;;;;;;7.47;6.70;;;;;;;9.11;52.91;100953.28;4892421;28;20048;-72
2021/04/15 01:01:19;;;;;;;6.50;5.90;;;;;;;8.90;53.99;100958.28;4893920;29;20095;-71
2021/04/15 01:03:46;;;;;;;9.55;6.40;;;;;;;9.02;52.94;100958.78;4891875;29;20124;-72
2021/04/15 01:06:14;;;;;;;7.30;5.97;;;;;;;8.75;54.41;100966.56;4894084;29;20144;-72
2021/04/15 01:08:42;;;;;;;6.28;5.70;;;;;;;8.54;54.48;100959.41;4892537;28;20045;-72
2021/04/15 01:11:54;;;;;;;7.25;6.40;;;;;;;8.75;54.22;100957.91;4892060;29;20064;-71
2021/04/15 01:14:26;;;;;;;6.60;6.00;;;;;;;8.75;53.84;100961.34;4895769;29;20120;-71
2021/04/15 01:17:09;;;;;;;8.40;6.47;;;;;;;8.33;55.74;100961.72;4894718;28;20048;-72
2021/04/15 01:20:25;;;;;;;7.00;6.30;;;;;;;8.57;54.59;100957.56;4897253;29;20053;-71
2021/04/15 01:23:24;;;;;;;8.18;6.20;;;;;;;8.55;55.16;100964.56;4904872;28;20459;-72
2021/04/15 01:26:08;;;;;;;6.88;6.15;;;;;;;8.66;54.68;100972.88;4895740;29;20053;-74
2021/04/15 01:29:11;;;;;;;7.95;7.13;;;;;;;8.57;55.03;100972.28;4895635;28;20099;-72
2021/04/15 01:31:57;;;;;;;7.03;6.32;;;;;;;8.49;55.16;100962.16;4975118;28;20049;-72
2021/04/15 01:34:32;;;;;;;6.43;5.82;;;;;;;8.50;55.66;100970.78;4894718;28;20091;-72
2021/04/15 01:37:15;;;;;;;7.10;6.43;;;;;;;8.45;55.36;100968.31;4896026;29;20496;-72
2021/04/15 01:39:52;;;;;;;7.25;6.50;;;;;;;8.31;55.88;100962.63;4894870;29;20048;-72
2021/04/15 01:42:33;;;;;;;8.20;6.32;;;;;;;8.24;57.73;100974.13;4894446;29;20492;-72
2021/04/15 01:45:06;;;;;;;7.78;6.97;;;;;;;8.30;58.25;100971.34;4892655;28;20071;-72
2021/04/15 01:47:39;;;;;;;7.35;6.32;;;;;;;8.21;57.89;100975.06;4894564;28;20048;-72
2021/04/15 01:50:15;;;;;;;8.55;7.53;;;;;;;8.48;56.60;100972.59;4895332;29;20064;-72
2021/04/15 01:52:44;;;;;;;7.80;6.82;;;;;;;8.37;57.19;100967.72;4894604;29;20487;-72
2021/04/15 01:55:20;;;;;;;8.43;7.63;;;;;;;8.48;56.66;100968.25;4909563;29;20550;-72
2021/04/15 01:58:22;;;;;;;7.25;6.55;;;;;;;7.98;58.75;100967.91;4895073;28;20048;-72
2021/04/15 02:00:56;;;;;;;8.57;6.35;;;;;;;8.04;57.75;100967.75;4895070;29;20051;-71
2021/04/15 02:03:32;;;;;;;10.00;6.63;;;;;;;7.99;57.65;100969.63;4895179;29;20056;-72
2021/04/15 02:06:02;;;;;;;8.77;6.65;;;;;;;7.94;58.28;100968.91;4894615;28;20041;-71
2021/04/15 02:08:35;;;;;;;11.13;7.25;;;;;;;8.04;58.91;100969.47;4895414;29;20076;-71
2021/04/15 02:11:41;;;;;;;10.38;7.88;;;;;;;8.19;57.61;100963.00;4894362;28;21098;-74
2021/04/15 02:14:12;;;;;;;7.40;6.13;;;;;;;8.16;57.38;100963.97;4895189;29;20064;-71
2021/04/15 02:16:41;;;;;;;8.95;7.40;;;;;;;8.20;57.33;100956.91;4894101;29;20135;-74
2021/04/15 02:19:33;;;;;;;8.57;7.32;;;;;;;8.15;57.13;100962.25;4895892;29;20045;-73
2021/04/15 02:22:03;;;;;;;7.75;6.82;;;;;;;7.81;58.13;100958.00;4894398;29;20045;-72
2021/04/15 02:24:35;;;;;;;9.13;7.50;;;;;;;7.65;58.79;100963.63;4895373;29;20103;-71
2021/04/15 02:27:09;;;;;;;9.32;6.50;;;;;;;7.72;59.16;100968.59;4893183;28;20068;-71
2021/04/15 02:29:38;;;;;;;8.93;7.32;;;;;;;7.63;59.36;100962.84;4876399;29;20484;-71
2021/04/15 02:32:16;;;;;;;9.55;7.55;;;;;;;7.56;59.31;100959.53;4874640;29;20083;-71
2021/04/15 02:34:48;;;;;;;9.02;7.05;;;;;;;7.83;58.45;100957.97;4876017;29;20067;-71
2021/04/15 02:37:28;;;;;;;11.13;7.60;;;;;;;7.91;57.97;100957.75;4876122;29;20083;-71
2021/04/15 02:40:07;;;;;;;13.90;7.32;;;;;;;8.27;58.01;100948.91;4876255;29;20100;-71
2021/04/15 02:42:38;;;;;;;7.50;6.68;;;;;;;8.17;57.97;100957.03;4876793;28;20448;-71
2021/04/15 02:45:29;;;;;;;11.48;6.50;;;;;;;8.24;57.11;100949.00;4909433;29;20563;-71
2021/04/15 02:48:02;;;;;;;8.93;6.70;;;;;;;8.18;56.76;100946.56;4893869;28;20049;-71
2021/04/15 02:50:31;;;;;;;8.20;7.40;;;;;;;7.96;57.49;100955.88;4894404;29;20064;-74
2021/04/15 02:53:17;;;;;;;5.72;5.22;;;;;;;8.16;56.64;100961.38;4893555;28;20655;-72
2021/04/15 02:55:55;;;;;;;10.05;6.65;;;;;;;8.36;55.73;100956.47;4894021;29;20492;-71
2021/04/15 02:58:35;;;;;;;10.00;6.53;;;;;;;8.26;56.30;100952.41;4886611;28;20129;-74
2021/04/15 03:01:02;;;;;;;7.03;6.32;;;;;;;8.32;56.27;100960.03;4893614;28;20071;-73
2021/04/15 03:03:34;;;;;;;7.95;7.15;;;;;;;8.14;56.75;100960.53;4892290;29;20496;-74
2021/04/15 03:06:24;;;;;;;7.43;6.63;;;;;;;7.97;57.94;100961.00;4894572;29;20052;-74
2021/04/15 03:08:57;;;;;;;9.30;6.13;;;;;;;8.11;57.47;100961.50;4894197;28;20044;-74
2021/04/15 03:11:32;;;;;;;7.50;6.32;;;;;;;7.85;59.92;100959.63;4894367;29;20052;-74
2021/04/15 03:14:03;;;;;;;8.10;6.15;;;;;;;8.03;59.09;100960.00;4893365;28;20055;-74
2021/04/15 03:16:33;;;;;;;8.52;7.28;;;;;;;7.96;59.72;100963.66;4893147;28;20492;-74
2021/04/15 03:19:08;;;;;;;8.18;7.28;;;;;;;7.68;59.82;100961.81;4894972;29;20128;-74
2021/04/15 03:22:11;;;;;;;11.80;7.03;;;;;;;7.28;61.29;100965.44;4892860;28;20072;-74
2021/04/15 03:24:43;;;;;;;7.28;6.57;;;;;;;7.47;61.19;100964.97;4893805;29;20136;-74
2021/04/15 03:27:33;;;;;;;10.23;8.05;;;;;;;7.55;61.05;100966.47;4893126;29;20575;-74
2021/04/15 03:30:01;;;;;;;8.15;6.45;;;;;;;7.74;60.85;100964.25;4894319;28;20491;-74
2021/04/15 03:32:28;;;;;;;12.55;7.00;;;;;;;7.59;61.22;100964.66;4892355;28;20083;-73
2021/04/15 03:35:07;;;;;;;7.50;6.65;;;;;;;7.56;60.67;100967.31;4894169;29;20045;-73
2021/04/15 03:37:56;;;;;;;11.40;7.40;;;;;;;7.30;60.66;100968.84;4892185;28;20076;-73
2021/04/15 03:40:25;;;;;;;7.50;6.78;;;;;;;7.24;61.16;100974.16;4894317;29;20071;-73
2021/04/15 03:42:55;;;;;;;9.82;6.95;;;;;;;7.14;61.89;100969.25;4892421;28;20048;-73
2021/04/15 03:45:29;;;;;;;7.93;7.15;;;;;;;7.14;62.04;100959.75;4894094;29;20091;-73
2021/04/15 03:48:02;;;;;;;7.90;6.85;;;;;;;7.05;61.91;100962.56;4892536;28;20076;-72
2021/04/15 03:50:39;;;;;;;7.70;6.93;;;;;;;7.35;61.43;100961.81;4894104;29;20419;-73
2021/04/15 03:53:10;;;;;;;9.95;7.28;;;;;;;7.55;60.82;100955.22;4893443;28;20111;-73
2021/04/15 03:55:52;;;;;;;8.07;7.05;;;;;;;7.62;60.84;100954.19;4893978;29;20091;-74
2021/04/15 03:58:35;;;;;;;9.40;7.13;;;;;;;7.38;61.47;100957.41;4892400;28;20041;-74
2021/04/15 04:01:09;;;;;;;9.23;6.50;;;;;;;7.44;61.68;100954.66;4894232;29;20547;-74
2021/04/15 04:03:39;;;;;;;11.05;6.45;;;;;;;7.52;60.85;100953.59;4892850;28;20048;-74
2021/04/15 04:06:16;;;;;;;10.45;6.90;;;;;;;7.49;62.19;100952.81;4894734;29;20554;-74
2021/04/15 04:08:50;;;;;;;7.05;6.35;;;;;;;7.26;62.86;100954.25;4892296;28;20124;-71
2021/04/15 04:11:19;;;;;;;8.43;6.90;;;;;;;7.53;61.98;100946.66;4893107;28;20052;-71
2021/04/15 04:13:58;;;;;;;7.32;6.55;;;;;;;7.83;59.64;100943.25;4893723;28;20124;-71
2021/04/15 04:16:31;;;;;;;9.13;7.47;;;;;;;7.78;60.20;100950.31;4892475;28;20061;-70
2021/04/15 04:19:09;;;;;;;10.02;8.63;;;;;;;7.83;59.05;100952.78;4893228;29;20044;-71
2021/04/15 04:21:42;;;;;;;10.82;6.57;;;;;;;7.90;59.08;100956.06;4893433;28;20455;-72
2021/04/15 04:24:27;;;;;;;8.40;6.65;;;;;;;7.72;59.42;100953.03;4893419;29;20045;-72
2021/04/15 04:27:03;;;;;;;10.32;5.18;;;;;;;7.63;60.47;100961.09;4893291;28;20075;-71
2021/04/15 04:29:47;;;;;;;7.47;6.43;;;;;;;7.91;59.59;100955.16;4893211;29;20051;-72
2021/04/15 04:32:17;;;;;;;15.90;6.55;;;;;;;7.72;60.06;100958.22;4892435;28;20048;-72
2021/04/15 04:34:49;;;;;;;7.07;6.25;;;;;;;7.52;61.21;100958.78;4893150;29;20045;-72
2021/04/15 04:37:16;;;;;;;7.50;6.63;;;;;;;7.69;60.89;100954.88;4892950;29;20091;-72
2021/04/15 04:39:42;;;;;;;11.65;7.35;;;;;;;7.48;61.55;100964.09;4893524;29;20076;-72
2021/04/15 04:42:26;;;;;;;9.10;6.45;;;;;;;7.51;62.04;100962.28;4890861;28;20092;-72
2021/04/15 04:44:59;;;;;;;7.05;6.18;;;;;;;7.53;62.23;100962.22;4893741;29;20095;-72
2021/04/15 04:47:31;;;;;;;9.40;6.40;;;;;;;7.34;62.40;100960.09;4891894;29;20060;-72
2021/04/15 04:50:11;;;;;;;8.20;6.47;;;;;;;7.14;63.23;100962.34;4892946;28;20052;-72
2021/04/15 04:52:38;;;;;;;10.35;6.32;;;;;;;7.25;62.92;100970.72;4894661;29;20056;-72
2021/04/15 04:55:22;;;;;;;10.35;6.90;;;;;;;7.20;62.69;100966.53;4895919;28;20119;-73
2021/04/15 04:57:49;;;;;;;7.28;6.38;;;;;;;7.39;62.31;100982.47;4910863;29;20041;-72
2021/04/15 05:00:21;;;;;;;10.00;7.60;;;;;;;7.57;60.81;100989.78;4894486;28;20092;-72
2021/04/15 05:02:55;;;;;;;9.07;7.68;;;;;;;7.41;61.16;100991.09;4894994;29;20049;-72
2021/04/15 05:05:28;;;;;;;10.95;7.43;;;;;;;7.44;61.41;100998.75;4893104;28;20139;-77
2021/04/15 05:08:23;;;;;;;15.07;8.18;;;;;;;7.69;60.81;101006.78;4896739;29;20518;-76
2021/04/15 05:10:52;;;;;;;9.40;7.75;;;;;;;7.76;60.93;101013.50;4898450;28;20087;-76
2021/04/15 05:13:25;;;;;;;11.68;6.78;;;;;;;7.68;61.89;101016.31;4896232;29;20036;-76
2021/04/15 05:15:53;;;;;;;;;;;;;;;7.74;61.13;101021.34;4895651;29;20403;-75
2021/04/15 05:18:22;;;;;;;7.60;6.38;;;;;;;7.81;61.20;101022.03;4896248;29;19927;-77
2021/04/15 05:20:55;;;;;;;12.02;7.97;;;;;;;7.60;62.11;101023.44;4896410;29;20049;-77
2021/04/15 05:23:38;;;;;;;9.18;8.27;;;;;;;7.54;63.05;101023.59;4895189;28;20091;-76
2021/04/15 05:26:08;;;;;;;10.90;9.23;;;;;;;7.58;62.68;101033.00;4895191;29;20056;-75
2021/04/15 05:28:36;;;;;;;8.90;7.45;;;;;;;7.63;62.19;101031.16;4896360;29;20132;-75
2021/04/15 05:31:05;;;;;;;11.93;8.82;;;;;;;7.50;62.37;101029.75;4895479;29;20037;-75
2021/04/15 05:33:34;;;;;;;9.68;8.07;;;;;;;7.81;61.14;101028.06;4895337;29;20396;-75
2021/04/15 05:36:14;;;;;;;11.65;7.38;;;;;;;7.73;60.84;101029.19;4896396;29;20048;-74
2021/04/15 05:38:48;;;;;;;8.52;7.63;;;;;;;7.94;59.89;101032.97;4895745;29;20095;-73
2021/04/15 05:41:27;;;;;;;10.57;6.68;;;;;;;7.88;60.00;101040.03;4896184;29;20439;-72
2021/04/15 05:43:58;;;;;;;8.02;7.22;;;;;;;7.71;59.79;101036.13;4892508;29;20103;-76
2021/04/15 05:46:38;;;;;;;15.35;7.38;;;;;;;7.53;61.84;101032.28;4896274;29;20056;-72
2021/04/15 05:49:05;;;;;;;8.20;6.97;;;;;;;7.76;60.03;101042.06;4894414;29;20075;-76
2021/04/15 05:51:41;;;;;;;11.88;7.35;;;;;;;7.79;59.57;101050.63;4894310;29;20124;-74
2021/04/15 05:54:13;;;;;;;8.30;6.72;;;;;;;7.79;59.83;101044.59;4894882;29;20064;-75
2021/04/15 05:56:54;;;;;;;7.47;6.65;;;;;;;7.62;59.44;101047.63;4894740;29;20080;-75
2021/04/15 05:59:30;;;;;;;13.07;7.40;;;;;;;7.63;59.80;101038.94;4893713;29;20041;-75
2021/04/15 06:02:27;;;;;;;8.50;6.50;;;;;;;7.92;59.99;101045.09;4894742;29;20041;-75
2021/04/15 06:05:12;;;;;;;8.02;7.05;;;;;;;7.59;60.19;101043.34;4895686;29;20408;-72
2021/04/15 06:07:41;;;;;;;12.18;6.50;;;;;;;7.67;59.19;101044.88;4893062;29;20080;-74
2021/04/15 06:10:10;;;;;;;8.10;7.10;;;;;;;7.67;59.59;101055.25;4896919;29;20114;-70
2021/04/15 06:13:12;;;;;;;9.00;6.38;;;;;;;7.66;59.20;101051.81;4903380;28;20045;-71
2021/04/15 06:15:51;;;;;;;8.07;6.20;;;;;;;7.82;57.40;101058.31;4923232;28;20115;-71
2021/04/15 06:18:39;;;;;;;9.10;6.32;;;;;;;7.59;57.68;101058.06;4894618;28;20527;-71
2021/04/15 06:21:08;;;;;;;7.82;6.75;;;;;;;7.65;58.30;101063.09;4894827;29;20095;-69
2021/04/15 06:23:44;;;;;;;8.55;6.93;;;;;;;7.47;59.46;101064.41;4894493;29;20049;-69
2021/04/15 06:26:28;;;;;;;10.90;7.18;;;;;;;7.59;59.31;101058.06;4894722;29;20547;-69
2021/04/15 06:28:57;;;;;;;7.53;6.78;;;;;;;7.39;59.25;101058.53;4895645;29;20726;-69
2021/04/15 06:31:28;;;;;;;7.80;7.00;;;;;;;7.50;59.59;101058.28;4896519;29;20064;-67
2021/04/15 06:34:00;;;;;;;9.10;7.50;;;;;;;7.82;59.37;101062.66;4894895;29;20984;-69
2021/04/15 06:36:39;;;;;;;7.97;7.18;;;;;;;7.79;59.31;101055.81;4894093;29;20150;-70
2021/04/15 06:39:26;;;;;;;10.98;7.90;;;;;;;7.59;60.09;101052.88;4892591;29;20048;-70
2021/04/15 06:41:55;;;;;;;8.05;6.82;;;;;;;7.83;59.74;101052.25;4889517;29;20148;-69
2021/04/15 06:44:34;;;;;;;10.10;8.20;;;;;;;7.72;60.09;101053.41;4893701;29;20047;-70
2021/04/15 06:47:13;;;;;;;10.77;6.88;;;;;;;7.76;60.85;101050.69;4894086;29;20128;-69
2021/04/15 06:50:00;;;;;;;10.65;7.35;;;;;;;7.99;60.08;101057.03;4891721;29;20087;-69
2021/04/15 06:52:31;;;;;;;9.85;7.47;;;;;;;8.27;59.25;101052.81;4896139;28;20084;-69
2021/04/15 06:55:13;;;;;;;12.23;8.65;;;;;;;8.24;59.17;101055.47;4895663;29;20548;-69
2021/04/15 06:58:01;;;;;;;9.57;8.32;;;;;;;7.95;58.56;101060.63;4896039;29;20138;-70
2021/04/15 07:00:36;;;;;;;13.52;8.68;;;;;;;7.67;59.26;101061.34;4895994;29;20395;-69
2021/04/15 07:03:27;;;;;;;12.30;8.18;;;;;;;7.71;59.91;101068.13;4894962;29;20053;-70
2021/04/15 07:06:20;;;;;;;10.57;9.00;;;;;;;7.69;60.31;101075.09;4894824;29;20115;-70
2021/04/15 07:09:34;;;;;;;9.35;8.30;;;;;;;8.02;61.24;101080.34;4938797;28;20053;-70
2021/04/15 07:12:12;;;;;;;10.13;7.82;;;;;;;8.16;60.05;101080.81;4894085;29;20127;-70
2021/04/15 07:14:45;;;;;;;10.65;8.70;;;;;;;7.98;60.93;101084.75;4894076;29;20049;-70
2021/04/15 07:17:41;;;;;;;12.75;8.15;;;;;;;8.31;60.19;101085.63;4893502;29;20040;-69
2021/04/15 07:20:19;;;;;;;8.80;7.90;;;;;;;8.57;60.27;101091.84;4894499;29;20059;-69
2021/04/15 07:23:00;;;;;;;14.30;8.20;;;;;;;8.29;58.74;101091.72;4893934;29;20103;-70
2021/04/15 07:25:45;;;;;;;8.65;7.82;;;;;;;8.49;59.43;101099.00;4894650;29;20041;-70
2021/04/15 07:28:26;;;;;;;;;;;;;;;8.57;58.31;101097.03;4893764;28;20051;-70
2021/04/15 07:31:12;;;;;;;10.90;8.05;;;;;;;8.78;58.63;101091.22;4893435;28;19927;-69
2021/04/15 07:34:23;;;;;;;9.75;8.48;;;;;;;8.93;57.88;101085.56;4894352;29;20048;-70
2021/04/15 07:37:18;;;;;;;14.77;7.55;;;;;;;8.86;57.50;101091.88;4898182;29;20079;-70
2021/04/15 07:40:08;;;;;;;9.80;8.80;;;;;;;9.06;57.62;101080.03;4894129;29;20040;-70
2021/04/15 07:42:58;;;;;;;13.32;8.57;;;;;;;9.12;57.14;101075.50;4892792;28;20048;-70
2021/04/15 07:45:35;;;;;;;11.70;8.02;;;;;;;8.85;57.15;101082.38;4893449;28;20049;-70
2021/04/15 07:48:41;;;;;;;10.60;8.80;;;;;;;8.73;57.45;101092.25;4875745;29;20049;-70
2021/04/15 07:51:31;;;;;;;9.55;8.45;;;;;;;8.45;58.74;101094.78;4879451;29;20061;-68
2021/04/15 07:54:35;;;;;;;11.85;8.35;;;;;;;8.89;58.57;101086.59;4897425;29;20045;-68
2021/04/15 07:57:26;;;;;;;10.80;9.60;;;;;;;9.13;57.29;101084.13;4893369;29;20080;-68
2021/04/15 08:00:16;;;;;;;9.90;8.32;;;;;;;9.29;57.41;101087.97;4894803;29;20813;-68
2021/04/15 08:02:58;;;;;;;9.90;7.13;;;;;;;9.58;57.73;101088.78;4892988;28;20128;-68
2021/04/15 08:06:01;;;;;;;13.77;7.15;;;;;;;9.83;56.44;101094.03;4894727;29;20095;-68
2021/04/15 08:08:59;;;;;;;9.27;7.25;;;;;;;10.11;55.47;101094.78;4875333;29;20437;-68
2021/04/15 08:11:35;;;;;;;8.35;7.53;;;;;;;10.45;54.97;101099.72;4922304;28;20123;-69
2021/04/15 08:14:36;;;;;;;16.35;8.98;;;;;;;10.38;53.14;101097.38;4892018;29;20041;-68
2021/04/15 08:17:11;;;;;;;13.02;10.65;;;;;;;10.97;52.94;101100.41;4892942;29;20114;-68
2021/04/15 08:20:07;;;;;;;12.57;8.02;;;;;;;11.62;52.69;101088.28;4874592;29;20128;-68
2021/04/15 08:23:08;;;;;;;9.40;7.28;;;;;;;12.70;47.87;101097.59;4882681;29;20440;-68
2021/04/15 08:25:46;;;;;;;15.68;7.75;;;;;;;12.82;46.27;101107.50;4893117;29;20463;-68
2021/04/15 08:28:38;;;;;;;8.00;7.20;;;;;;;14.06;44.35;101105.03;4892231;28;20041;-68
2021/04/15 08:31:11;;;;;;;7.85;6.90;;;;;;;14.76;43.19;101095.28;4892821;29;20551;-68
2021/04/15 08:34:08;;;;;;;7.53;6.80;;;;;;;14.93;40.91;101108.34;4874705;29;20755;-69
2021/04/15 08:37:11;;;;;;;11.02;6.20;;;;;;;14.67;42.17;101107.13;4885107;28;20049;-68
2021/04/15 08:39:37;;;;;;;8.40;5.97;;;;;;;15.20;41.38;101098.09;4911949;29;20157;-68
2021/04/15 08:42:15;;;;;;;11.70;7.13;;;;;;;15.37;40.55;101104.19;4891863;29;20041;-69
2021/04/15 08:45:06;;;;;;;11.65;6.78;;;;;;;15.61;40.47;101108.06;4892270;28;20381;-68
2021/04/15 08:47:50;;;;;;;8.68;6.35;;;;;;;16.34;39.47;101107.31;4889972;28;20591;-68
2021/04/15 08:50:24;;;;;;;9.17;7.33;;;;;;;15.59;40.86;101103.81;4895181;28;20056;-68
2021/04/15 08:53:30;;;;;;;13.57;6.70;;;;;;;16.58;37.42;101097.94;4909245;29;20311;-68
2021/04/15 08:56:07;;;;;;;9.00;6.93;;;;;;;15.87;38.21;101097.81;4887113;29;20050;-68
2021/04/15 08:59:10;;;;;;;7.13;6.43;;;;;;;16.52;39.48;101090.41;4873885;29;20077;-68
2021/04/15 09:01:37;;;;;;;8.13;5.65;;;;;;;17.13;36.48;101089.22;4882701;29;20044;-69
2021/04/15 09:04:15;;;;;;;8.75;5.82;;;;;;;16.28;37.07;101098.00;4892231;28;20128;-69
2021/04/15 09:06:47;;;;;;;7.97;5.28;;;;;;;16.81;36.39;101085.16;4892817;29;20048;-69
2021/04/15 09:09:34;;;;;;;6.43;5.57;;;;;;;16.30;37.23;101092.63;4891597;29;20051;-69
2021/04/15 09:12:19;;;;;;;6.93;6.22;;;;;;;17.40;36.48;101077.84;4893456;29;20048;-68
2021/04/15 09:15:01;;;;;;;7.45;4.80;;;;;;;16.31;35.32;101084.69;4891634;28;20591;-69
2021/04/15 09:17:38;;;;;;;6.35;4.60;;;;;;;16.08;36.52;101088.66;4892358;29;20484;-69
2021/04/15 09:20:17;;;;;;;6.35;5.28;;;;;;;15.80;37.53;101078.09;4891489;28;20041;-68
2021/04/15 09:23:13;;;;;;;7.55;4.82;;;;;;;16.73;35.48;101070.69;4892639;29;20049;-69
2021/04/15 09:25:45;;;;;;;5.95;5.35;;;;;;;16.33;36.14;101077.53;4891886;29;20474;-69
2021/04/15 09:28:30;;;;;;;5.85;5.25;;;;;;;15.30;37.49;101071.31;4889942;28;20052;-68
2021/04/15 09:31:15;;;;;;;8.15;5.10;;;;;;;14.80;38.07;101070.53;4892422;29;20056;-69
2021/04/15 09:34:19;;;;;;;6.45;5.03;;;;;;;14.40;40.55;101072.66;4891468;28;20045;-69
2021/04/15 09:37:13;;;;;;;6.20;4.45;;;;;;;14.32;40.04;101079.22;4895839;29;20056;-69
2021/04/15 09:40:04;;;;;;;8.18;4.43;;;;;;;14.13;41.33;101068.88;4894775;29;20144;-69
2021/04/15 09:42:40;;;;;;;9.00;4.95;;;;;;;13.92;42.30;101065.56;4895856;29;20056;-69
2021/04/15 09:45:12;;;;;;;9.23;5.63;;;;;;;13.87;42.89;101067.56;4894300;29;20115;-68
2021/04/15 09:47:39;;;;;;;6.43;5.15;;;;;;;13.70;43.02;101055.31;4896720;29;20567;-68
2021/04/15 09:50:08;;;;;;;5.15;4.65;;;;;;;13.63;42.86;101062.66;4894932;28;20099;-68
2021/04/15 09:53:14;;;;;;;4.63;4.22;;;;;;;13.72;43.37;101060.47;4895645;29;20132;-68
2021/04/15 09:55:59;;;;;;;;;;;;;;;13.20;43.36;101070.84;4915499;29;20088;-68
2021/04/15 09:58:34;;;;;;;5.90;3.85;;;;;;;13.18;44.08;101068.31;4895558;28;20022;-68
2021/04/15 10:01:13;;;;;;;6.88;4.40;;;;;;;12.80;44.41;101062.25;4894971;29;20059;-68
2021/04/15 10:04:10;;;;;;;4.85;4.30;;;;;;;12.67;45.78;101058.50;4895670;29;20124;-68
2021/04/15 10:06:44;;;;;;;6.32;4.85;;;;;;;12.83;45.92;101062.09;4876518;29;20408;-68
2021/04/15 10:09:35;;;;;;;4.95;4.43;;;;;;;12.57;45.69;101060.69;4877012;29;20127;-68
2021/04/15 10:12:20;;;;;;;10.43;4.80;;;;;;;12.65;45.85;101048.09;4876560;29;20045;-68
2021/04/15 10:15:16;;;;;;;4.88;3.97;;;;;;;12.82;46.91;101049.94;4879563;29;20080;-68
2021/04/15 10:18:06;;;;;;;7.13;4.82;;;;;;;12.58;46.91;101046.69;4894539;29;20135;-68
2021/04/15 10:20:47;;;;;;;6.63;4.50;;;;;;;12.92;46.79;101043.34;4894851;28;20056;-68
2021/04/15 10:23:41;;;;;;;5.63;4.22;;;;;;;12.51;45.45;101032.19;4895504;29;20049;-68
2021/04/15 10:26:26;;;;;;;8.47;3.83;;;;;;;12.59;46.34;101028.31;4894170;29;20523;-68
2021/04/15 10:29:07;;;;;;;4.82;3.95;;;;;;;12.48;46.00;101041.03;4893170;28;20068;-69
2021/04/15 10:32:01;;;;;;;5.70;3.78;;;;;;;12.59;46.05;101030.94;4894547;29;20044;-68
2021/04/15 10:35:06;;;;;;;6.75;4.50;;;;;;;12.62;46.17;101037.78;4895079;29;20051;-68
2021/04/15 10:38:13;;;;;;;6.05;4.50;;;;;;;12.49;45.26;101037.50;4910487;29;20044;-68
2021/04/15 10:41:02;;;;;;;5.90;4.00;;;;;;;12.56;46.41;101025.81;4894556;29;20554;-68
2021/04/15 10:43:28;;;;;;;9.13;4.47;;;;;;;12.68;46.30;101011.38;4893466;29;20400;-68
2021/04/15 10:46:13;;;;;;;10.63;5.57;;;;;;;12.66;45.48;101017.56;4894554;29;20045;-68
2021/04/15 10:49:01;;;;;;;3.88;3.15;;;;;;;12.50;45.46;101026.13;4893923;28;20041;-68
2021/04/15 10:51:55;;;;;;;3.33;3.03;;;;;;;12.26;45.29;101016.78;4895084;29;20080;-68
2021/04/15 10:54:30;;;;;;;4.38;3.25;;;;;;;12.33;44.82;101012.97;4893133;29;20499;-68
2021/04/15 10:57:12;;;;;;;4.88;3.20;;;;;;;12.36;44.79;101005.00;4894744;29;20088;-68
2021/04/15 10:59:40;;;;;;;8.10;3.30;;;;;;;12.47;45.78;101013.19;4894845;29;20076;-68
2021/04/15 11:02:24;;;;;;;3.50;2.80;;;;;;;12.27;45.52;101008.00;4894710;29;20581;-68
2021/04/15 11:05:12;;;;;;;5.32;4.07;;;;;;;12.12;45.34;101017.38;4894002;29;20059;-68
2021/04/15 11:07:39;;;;;;;4.80;3.55;;;;;;;12.17;46.68;101009.34;4899615;28;20052;-68
2021/04/15 11:10:19;;;;;;;8.55;3.15;;;;;;;12.26;46.49;100995.88;4894142;29;20132;-69
2021/04/15 11:12:45;;;;;;;4.03;2.72;;;;;;;12.17;45.41;100996.28;4893897;29;20120;-68
2021/04/15 11:15:22;;;;;;;5.00;3.30;;;;;;;12.36;45.12;100999.75;4892519;29;20128;-68
2021/04/15 11:17:53;;;;;;;3.65;3.05;;;;;;;12.43;45.37;101001.16;4892133;28;20114;-68
2021/04/15 11:20:22;;;;;;;4.32;3.17;;;;;;;12.22;45.41;101002.16;4892148;29;20052;-68
2021/04/15 11:23:03;;;;;;;3.65;3.35;;;;;;;12.25;45.71;100994.16;4892252;28;20053;-68
2021/04/15 11:25:54;;;;;;;8.77;3.40;;;;;;;12.00;46.07;100987.41;4892094;29;20587;-67
2021/04/15 11:28:21;;;;;;;5.22;3.30;;;;;;;12.12;46.43;101001.69;4892231;29;20067;-68
2021/04/15 11:30:54;;;;;;;4.18;3.25;;;;;;;12.05;46.74;101010.72;4892761;29;20539;-68
2021/04/15 11:33:49;;;;;;;3.40;3.10;;;;;;;11.99;46.29;100990.09;4893021;29;20068;-68
2021/04/15 11:36:25;;;;;;;3.78;3.45;;;;;;;12.10;46.33;100987.00;4907600;29;20099;-68
2021/04/15 11:39:05;;;;;;;3.85;3.15;;;;;;;11.92;46.27;100986.88;4893572;29;20052;-68
2021/04/15 11:41:47;;;;;;;9.00;2.80;;;;;;;11.85;45.84;100985.47;4893724;29;20056;-67
2021/04/15 11:44:43;;;;;;;3.55;2.88;;;;;;;11.83;46.61;100989.91;4892940;29;20104;-68
2021/04/15 11:47:22;;;;;;;5.05;3.00;;;;;;;11.89;46.09;100989.66;4894071;29;20057;-67
2021/04/15 11:49:50;;;;;;;6.88;3.00;;;;;;;11.99;46.38;100992.72;4893562;29;20479;-68
2021/04/15 11:52:20;;;;;;;4.28;3.28;;;;;;;11.96;47.48;100998.06;4893968;29;20063;-68
2021/04/15 11:54:49;;;;;;;4.40;2.83;;;;;;;11.88;48.89;101001.03;4892949;29;20114;-68
2021/04/15 11:57:18;;;;;;;5.47;2.97;;;;;;;11.83;49.69;101002.97;4893914;29;20527;-68
2021/04/15 11:59:57;;;;;;;5.10;2.97;;;;;;;11.72;50.71;100994.72;4892807;29;20073;-68
2021/04/15 12:02:33;;;;;;;4.65;3.28;;;;;;;11.50;50.91;101003.47;4891163;28;20123;-68
2021/04/15 12:05:34;;;;;;;5.05;3.55;;;;;;;11.55;52.14;101001.47;4892450;29;20048;-68
2021/04/15 12:08:08;;;;;;;3.60;3.13;;;;;;;11.46;53.18;101001.06;4893902;29;20056;-68
2021/04/15 12:10:39;;;;;;;4.65;3.35;;;;;;;11.16;52.09;101003.16;4892643;28;20107;-68
2021/04/15 12:13:17;;;;;;;5.18;3.80;;;;;;;11.10;52.58;101013.84;4892177;28;20524;-68
2021/04/15 12:16:24;;;;;;;4.10;3.10;;;;;;;11.10;52.43;101013.84;4893158;29;20141;-68
2021/04/15 12:18:53;;;;;;;6.20;3.45;;;;;;;11.28;52.16;101010.47;4891660;29;20048;-68
2021/04/15 12:21:26;;;;;;;4.68;3.60;;;;;;;11.29;53.73;101017.38;4894488;29;20127;-70
2021/04/15 12:24:15;;;;;;;4.25;3.10;;;;;;;11.35;54.00;101017.16;4892141;29;20484;-70
2021/04/15 12:26:48;;;;;;;5.88;2.88;;;;;;;11.35;54.52;101017.16;4894060;29;20148;-68